Ogdensburg, NY (13669)

8:41 AM EST on December 04, 2016 (GMT -0500)
St. Lawrence County Skywarn, Ogdensburg South End | | Change Station

Elev 279 ft 44.69 °N, 75.49 °W | Updated 6 seconds ago

Mostly Cloudy
Mostly Cloudy
28.2 °F
Feels Like 28 °F
N
0.0
Wind Variable Wind from North
Gusts 0.0 mph

Today
High -- | Low -- °F
--% Chance of Precip.
Yesterday
High -- | Low -- °F
Precip. -- in
Pressure 30.28 in
Visibility 10.0 miles
Clouds Mostly Cloudy 2300 ft
Windchill 28 °F
Dew Point 22 °F
Humidity 76%
Rainfall 0.00 in
Snow Depth Not available.
7:22 AM 4:21 PM
Waxing Crescent, 22% visible
METAR KOGS 041335Z AUTO 29005KT 10SM BKN023 M01/M05 A3028 RMK AO2 T10111054 TSNO
Pressure 30.28 in
Visibility 10.0 miles
Clouds Mostly Cloudy 2300 ft
Windchill 28 °F
Dew Point 22 °F
Humidity 76%
Rainfall 0.00 in
Snow Depth Not available.
7:22 AM 4:21 PM
Waxing Crescent, 22% visible
METAR KOGS 041335Z AUTO 29005KT 10SM BKN023 M01/M05 A3028 RMK AO2 T10111054 TSNO

10-Day Weather Forecast

Almanac

Astronomy

Dec. 04, 2016 Rise Set
Actual Time
Civil Twilight
Nautical Twilight
Astronomical Twilight
Moon
Length of Visible Light
Length of Day
Tomorrow will be .
, % of the Moon is Illuminated

Today's Extremes

State Highs State Lows

Community

WunderPhotos

Upload Photos

1,955,596 photos uploaded!

WunderBlog® & News

Nearby

Air Quality

  Air Quality AQ Index Pollutant
Not available.

Snow Depth

Station Depth Elevation

Earthquake Activity

City Distance Mag. Time & Date
Minimum magnitude displayed is 2.5.

Coastal Water Temperatures

Place Temperature

Stations

Nearby Weather Stations

Station Location Temp. Windchill Dew Point Humidity Wind Precip. Elev Updated Type
                   

Watches & Warnings

There are currently no watches in effect.